createdAt,value
2023-05-22T00:00:19.071Z,20.60
2023-05-22T00:03:08.548Z,14.20
2023-05-22T00:05:39.067Z,9.10
2023-05-22T00:10:40.289Z,7.50
2023-05-22T00:13:08.593Z,10.20
2023-05-22T00:15:36.549Z,6.80
2023-05-22T00:18:06.504Z,9.20
2023-05-22T00:20:39.616Z,9.40
2023-05-22T00:23:12.163Z,8.30
2023-05-22T00:25:41.428Z,10.30
2023-05-22T00:28:09.682Z,5.60
2023-05-22T00:30:38.057Z,11.90
2023-05-22T00:33:06.501Z,9.80
2023-05-22T00:35:34.465Z,10.00
2023-05-22T00:38:04.319Z,10.40
2023-05-22T00:40:32.359Z,10.80
2023-05-22T00:43:00.536Z,12.30
2023-05-22T00:45:28.471Z,13.40
2023-05-22T00:47:56.706Z,12.20
2023-05-22T00:50:24.985Z,10.10
2023-05-22T00:52:53.035Z,14.00
2023-05-22T00:55:20.918Z,18.00
2023-05-22T00:57:49.930Z,12.60
2023-05-22T01:00:18.670Z,9.30
2023-05-22T01:02:46.735Z,10.20
2023-05-22T01:05:18.302Z,11.00
2023-05-22T01:07:46.590Z,10.40
2023-05-22T01:10:14.647Z,7.60
2023-05-22T01:13:07.300Z,9.50
2023-05-22T01:15:52.948Z,9.00
2023-05-22T01:18:43.998Z,8.30
2023-05-22T01:21:24.230Z,11.20
2023-05-22T01:24:11.867Z,7.50
2023-05-22T01:27:02.077Z,15.80
2023-05-22T01:29:44.533Z,11.80
2023-05-22T01:32:17.532Z,7.30
2023-05-22T01:34:47.967Z,11.30
2023-05-22T01:37:19.779Z,10.30
2023-05-22T01:39:48.304Z,7.10
2023-05-22T01:42:16.337Z,12.10
2023-05-22T01:44:44.569Z,8.70
2023-05-22T01:47:15.879Z,10.40
2023-05-22T01:49:50.409Z,11.00
2023-05-22T01:52:56.925Z,7.90
2023-05-22T01:55:40.589Z,9.80
2023-05-22T01:58:14.874Z,12.60
2023-05-22T02:00:47.191Z,15.40
2023-05-22T02:03:19.839Z,13.60
2023-05-22T02:05:54.456Z,11.50
2023-05-22T02:08:22.834Z,7.80
2023-05-22T02:10:55.076Z,11.20
2023-05-22T02:13:24.165Z,11.80
2023-05-22T02:15:53.043Z,9.70
2023-05-22T02:18:27.167Z,11.40
2023-05-22T02:20:59.888Z,12.10
2023-05-22T02:23:29.850Z,14.60
2023-05-22T02:25:58.016Z,11.70
2023-05-22T02:28:27.570Z,10.10
2023-05-22T02:30:55.558Z,12.50
2023-05-22T02:33:23.879Z,12.10
2023-05-22T02:35:51.844Z,11.10
2023-05-22T02:38:20.382Z,12.60
2023-05-22T02:40:49.792Z,11.50
2023-05-22T02:43:17.745Z,9.90
2023-05-22T02:45:45.874Z,8.50
2023-05-22T02:48:13.851Z,14.50
2023-05-22T02:50:44.288Z,10.90
2023-05-22T02:53:14.520Z,9.10
2023-05-22T02:55:43.575Z,12.50
2023-05-22T02:58:12.000Z,14.50
2023-05-22T03:00:40.982Z,9.60
2023-05-22T03:03:09.386Z,15.10
2023-05-22T03:05:38.609Z,13.60
2023-05-22T03:08:08.785Z,12.20
2023-05-22T03:10:37.004Z,13.50
2023-05-22T03:13:05.287Z,12.00
2023-05-22T03:15:33.315Z,10.80
2023-05-22T03:18:08.125Z,11.70
2023-05-22T03:20:36.234Z,8.80
2023-05-22T03:23:05.215Z,14.20
2023-05-22T03:25:33.197Z,11.30
2023-05-22T03:28:01.140Z,17.90
2023-05-22T03:30:30.916Z,11.90
2023-05-22T03:33:09.657Z,10.40
2023-05-22T03:35:37.709Z,18.00
2023-05-22T03:38:06.052Z,12.40
2023-05-22T03:40:34.105Z,14.80
2023-05-22T03:43:02.154Z,15.00
2023-05-22T03:45:30.306Z,11.70
2023-05-22T03:47:59.172Z,10.30
2023-05-22T03:50:27.262Z,13.30
2023-05-22T03:52:55.220Z,10.40
2023-05-22T03:55:23.492Z,9.30
2023-05-22T03:57:53.452Z,11.60
2023-05-22T04:00:21.645Z,11.20
2023-05-22T04:02:50.531Z,9.50
2023-05-22T04:05:18.710Z,9.80
2023-05-22T04:07:48.243Z,14.30
2023-05-22T04:10:16.279Z,7.90
2023-05-22T04:12:45.722Z,10.20
2023-05-22T04:15:14.832Z,7.80
2023-05-22T04:17:42.825Z,11.20
2023-05-22T04:20:11.502Z,11.00
2023-05-22T04:22:41.365Z,8.60
2023-05-22T04:25:12.207Z,8.90
2023-05-22T04:27:40.290Z,12.30
2023-05-22T04:30:10.537Z,10.60
2023-05-22T04:32:41.023Z,7.00
2023-05-22T04:35:10.187Z,6.50
2023-05-22T04:40:10.225Z,8.50
2023-05-22T04:42:39.012Z,8.50
2023-05-22T04:45:07.344Z,12.90
2023-05-22T04:47:38.344Z,7.90
2023-05-22T04:50:08.717Z,13.10
2023-05-22T04:52:37.519Z,9.00
2023-05-22T04:55:07.144Z,9.70
2023-05-22T04:57:35.102Z,10.50
2023-05-22T05:00:06.636Z,8.90
2023-05-22T05:02:37.348Z,7.70
2023-05-22T05:05:05.556Z,9.70
2023-05-22T05:07:37.601Z,13.80
2023-05-22T05:10:07.361Z,10.00
2023-05-22T05:12:35.793Z,14.30
2023-05-22T05:15:04.174Z,10.00
2023-05-22T05:17:32.108Z,10.90
2023-05-22T05:20:00.444Z,9.90
2023-05-22T05:22:29.321Z,8.50
2023-05-22T05:24:58.365Z,17.70
2023-05-22T05:27:26.607Z,9.80
2023-05-22T05:29:55.332Z,13.00
2023-05-22T05:32:27.922Z,10.20
2023-05-22T05:35:14.598Z,7.90
2023-05-22T05:37:48.092Z,11.60
2023-05-22T05:40:16.360Z,7.60
2023-05-22T05:42:48.767Z,8.80
2023-05-22T05:45:19.053Z,11.80
2023-05-22T05:47:47.114Z,7.20
2023-05-22T05:50:15.996Z,11.30
2023-05-22T05:52:45.096Z,8.90
2023-05-22T05:55:16.835Z,18.10
2023-05-22T05:57:44.919Z,10.10
2023-05-22T06:00:19.308Z,11.80
2023-05-22T06:02:50.639Z,12.90
2023-05-22T06:05:46.111Z,16.00
2023-05-22T06:08:28.278Z,14.90
2023-05-22T06:10:56.554Z,14.30
2023-05-22T06:13:36.816Z,19.10
2023-05-22T06:16:06.768Z,13.40
2023-05-22T06:18:35.689Z,34.00
2023-05-22T06:21:03.870Z,10.30
2023-05-22T06:23:32.398Z,218.80
2023-05-22T06:26:01.125Z,30.00
2023-05-22T06:28:29.390Z,22.70
2023-05-22T06:30:58.129Z,25.80
2023-05-22T06:33:27.141Z,14.30
2023-05-22T06:35:55.525Z,23.30
2023-05-22T06:38:24.310Z,17.60
2023-05-22T06:40:52.326Z,19.00
2023-05-22T06:43:25.677Z,17.30
2023-05-22T06:46:16.935Z,13.20
2023-05-22T06:48:55.230Z,13.40
2023-05-22T06:51:25.884Z,16.10
2023-05-22T06:53:58.938Z,19.60
2023-05-22T06:56:29.884Z,7.30
2023-05-22T06:59:06.119Z,7.80
2023-05-22T07:02:04.943Z,5.40
2023-05-22T07:04:38.921Z,5.70
2023-05-22T07:07:10.237Z,7.20
2023-05-22T07:09:38.565Z,9.30
2023-05-22T07:12:07.550Z,7.30
2023-05-22T07:14:35.744Z,5.30
2023-05-22T07:17:04.098Z,7.10
2023-05-22T07:19:36.603Z,8.90
2023-05-22T07:22:05.686Z,8.10
2023-05-22T07:24:35.057Z,6.50
2023-05-22T07:27:04.563Z,6.40
2023-05-22T07:29:33.378Z,6.40
2023-05-22T07:32:01.879Z,6.40
2023-05-22T07:34:34.427Z,24.00
2023-05-22T07:37:09.221Z,8.40
2023-05-22T07:39:37.274Z,6.40
2023-05-22T07:42:06.056Z,11.30
2023-05-22T07:44:36.019Z,10.50
2023-05-22T07:47:04.370Z,9.00
2023-05-22T07:49:32.700Z,4.70
2023-05-22T07:52:02.706Z,7.30
2023-05-22T07:54:30.614Z,6.60
2023-05-22T07:57:03.284Z,9.20
2023-05-22T07:59:33.783Z,16.80
2023-05-22T08:02:02.775Z,10.40
2023-05-22T08:04:30.851Z,8.20
2023-05-22T08:06:59.385Z,10.50
2023-05-22T08:09:27.428Z,5.50
2023-05-22T08:11:55.423Z,9.70
2023-05-22T08:14:23.460Z,5.80
2023-05-22T08:16:52.017Z,8.20
2023-05-22T08:19:20.397Z,10.50
2023-05-22T08:21:48.590Z,5.90
2023-05-22T08:24:16.551Z,6.50
2023-05-22T08:26:44.869Z,5.20
2023-05-22T08:29:12.906Z,5.40
2023-05-22T08:31:41.266Z,6.80
2023-05-22T08:34:10.738Z,11.40
2023-05-22T08:36:39.136Z,7.20
2023-05-22T08:39:09.917Z,5.80
2023-05-22T08:41:38.384Z,7.50
2023-05-22T08:44:06.349Z,12.40
2023-05-22T08:46:38.077Z,10.20
2023-05-22T08:49:06.156Z,14.20
2023-05-22T08:51:38.543Z,9.70
2023-05-22T08:54:12.757Z,8.60
2023-05-22T08:56:52.806Z,15.00
2023-05-22T08:59:24.370Z,9.00
2023-05-22T09:01:53.494Z,8.20
2023-05-22T09:04:23.914Z,7.40
2023-05-22T09:09:19.940Z,4.20
2023-05-22T09:11:48.242Z,4.90
2023-05-22T09:14:16.525Z,8.30
2023-05-22T09:16:49.380Z,8.70
2023-05-22T09:19:17.820Z,10.50
2023-05-22T09:21:45.818Z,9.70
2023-05-22T09:24:13.824Z,10.20
2023-05-22T09:26:42.098Z,7.50
2023-05-22T09:29:10.079Z,8.10
2023-05-22T09:31:44.779Z,9.30
2023-05-22T09:34:17.821Z,9.40
2023-05-22T09:36:45.832Z,10.30
2023-05-22T09:39:13.833Z,6.40
2023-05-22T09:41:41.603Z,10.50
2023-05-22T09:44:14.094Z,8.70
2023-05-22T09:46:46.488Z,5.50
2023-05-22T09:49:16.471Z,5.10
2023-05-22T09:54:16.975Z,4.50
2023-05-22T09:56:50.162Z,6.90
2023-05-22T09:59:26.818Z,5.70
2023-05-22T10:01:55.407Z,9.20
2023-05-22T10:04:24.201Z,8.10
2023-05-22T10:06:54.548Z,10.20
2023-05-22T10:09:26.345Z,7.50
2023-05-22T10:11:58.712Z,5.60
2023-05-22T10:14:28.237Z,9.60
2023-05-22T10:19:32.821Z,7.20
2023-05-22T10:22:02.131Z,8.80
2023-05-22T10:24:31.285Z,5.70
2023-05-22T10:26:59.392Z,6.40
2023-05-22T10:29:44.992Z,7.20
2023-05-22T10:32:35.802Z,4.70
2023-05-22T10:35:25.351Z,9.40
2023-05-22T10:38:22.861Z,5.60
2023-05-22T10:40:51.676Z,13.00
2023-05-22T10:43:22.280Z,9.60
2023-05-22T10:46:01.313Z,5.70
2023-05-22T10:48:30.500Z,8.10
2023-05-22T10:50:59.988Z,8.00
2023-05-22T10:53:31.310Z,6.60
2023-05-22T10:56:03.089Z,7.80
2023-05-22T10:58:32.761Z,7.40
2023-05-22T11:01:17.054Z,6.80
2023-05-22T11:03:59.012Z,7.60
2023-05-22T11:06:34.858Z,5.60
2023-05-22T11:09:30.669Z,11.20
2023-05-22T11:12:31.254Z,6.90
2023-05-22T11:15:08.242Z,8.70
2023-05-22T11:17:39.190Z,7.30
2023-05-22T11:20:15.602Z,6.00
2023-05-22T11:22:50.149Z,6.10
2023-05-22T11:25:19.678Z,6.50
2023-05-22T11:27:48.905Z,4.70
2023-05-22T11:30:17.420Z,7.40
2023-05-22T11:32:46.537Z,10.50
2023-05-22T11:35:17.419Z,4.10
2023-05-22T11:37:46.187Z,5.20
2023-05-22T11:40:16.321Z,8.20
2023-05-22T11:42:44.433Z,6.10
2023-05-22T11:45:12.543Z,6.00
2023-05-22T11:47:40.952Z,6.30
2023-05-22T11:50:10.296Z,7.80
2023-05-22T11:52:40.541Z,7.60
2023-05-22T11:57:37.412Z,5.10
2023-05-22T12:00:08.560Z,5.70
2023-05-22T12:02:47.624Z,7.00
2023-05-22T12:05:16.869Z,8.30
2023-05-22T12:07:45.066Z,9.90
2023-05-22T12:10:15.409Z,8.30
2023-05-22T12:15:12.195Z,12.80
2023-05-22T12:17:40.231Z,14.00
2023-05-22T12:20:13.650Z,8.70
2023-05-22T12:22:43.383Z,6.60
2023-05-22T12:25:20.073Z,5.70
2023-05-22T12:27:48.020Z,11.10
2023-05-22T12:30:16.854Z,8.30
2023-05-22T12:32:51.723Z,7.70
2023-05-22T12:35:19.870Z,11.30
2023-05-22T12:37:52.018Z,15.00
2023-05-22T12:40:20.232Z,6.30
2023-05-22T12:42:48.902Z,10.60
2023-05-22T12:45:18.173Z,6.60
2023-05-22T12:47:46.549Z,4.90
2023-05-22T12:50:14.650Z,8.50
2023-05-22T12:52:42.692Z,7.90
2023-05-22T12:55:11.360Z,9.10
2023-05-22T12:57:39.338Z,7.20
2023-05-22T13:00:07.865Z,9.00
2023-05-22T13:02:35.878Z,7.10
2023-05-22T13:05:04.164Z,6.70
2023-05-22T13:07:32.160Z,9.00
2023-05-22T13:10:00.235Z,6.70
2023-05-22T13:12:28.204Z,8.80
2023-05-22T13:14:56.073Z,17.70
2023-05-22T13:17:24.154Z,13.50
2023-05-22T13:19:52.803Z,5.80
2023-05-22T13:22:20.799Z,6.40
2023-05-22T13:24:48.787Z,8.40
2023-05-22T13:27:18.435Z,4.90
2023-05-22T13:29:46.356Z,5.30
2023-05-22T13:32:14.758Z,23.20
2023-05-22T13:34:42.707Z,23.60
2023-05-22T13:37:10.997Z,15.30
2023-05-22T13:39:38.986Z,17.20
2023-05-22T13:42:07.617Z,11.90
2023-05-22T13:44:35.488Z,16.40
2023-05-22T13:47:03.629Z,9.40
2023-05-22T13:49:31.763Z,21.60
2023-05-22T13:51:59.760Z,17.70
2023-05-22T13:54:28.085Z,14.90
2023-05-22T13:56:57.779Z,23.40
2023-05-22T13:59:25.709Z,12.40
2023-05-22T14:01:53.645Z,10.80
2023-05-22T14:04:21.628Z,8.10
2023-05-22T14:06:49.685Z,7.10
2023-05-22T14:09:18.446Z,7.30
2023-05-22T14:11:46.816Z,6.40
2023-05-22T14:14:14.853Z,6.80
2023-05-22T14:16:42.871Z,13.50
2023-05-22T14:19:10.996Z,7.70
2023-05-22T14:21:39.023Z,8.80
2023-05-22T14:24:07.032Z,9.40
2023-05-22T14:26:34.930Z,6.30
2023-05-22T14:29:02.962Z,6.90
2023-05-22T14:31:30.935Z,7.50
2023-05-22T14:33:58.975Z,6.20
2023-05-22T14:36:26.829Z,4.90
2023-05-22T14:38:57.043Z,5.30
2023-05-22T14:41:25.078Z,6.70
2023-05-22T14:43:53.084Z,7.70
2023-05-22T14:46:20.924Z,13.30
2023-05-22T14:48:48.826Z,5.40
2023-05-22T14:51:20.308Z,6.80
2023-05-22T14:53:48.534Z,6.20
2023-05-22T14:56:16.478Z,5.90
2023-05-22T14:58:44.469Z,10.50
2023-05-22T15:01:12.259Z,8.50
2023-05-22T15:03:40.141Z,12.00
2023-05-22T15:06:08.707Z,4.20
2023-05-22T15:08:37.514Z,6.90
2023-05-22T15:11:05.642Z,6.50
2023-05-22T15:13:33.546Z,3.60
2023-05-22T15:16:01.525Z,9.00
2023-05-22T15:18:29.549Z,9.70
2023-05-22T15:20:57.890Z,7.80
2023-05-22T15:23:26.595Z,23.30
2023-05-22T15:25:55.042Z,7.90
2023-05-22T15:28:23.371Z,9.00
2023-05-22T15:30:51.154Z,8.90
2023-05-22T15:33:19.063Z,13.90
2023-05-22T15:35:47.404Z,18.00
2023-05-22T15:38:15.707Z,26.40
2023-05-22T15:40:44.697Z,4.50
2023-05-22T15:43:12.550Z,12.70
2023-05-22T15:45:41.252Z,14.00
2023-05-22T15:48:09.291Z,16.90
2023-05-22T15:50:37.367Z,24.30
2023-05-22T15:53:05.356Z,6.90
2023-05-22T15:55:36.706Z,11.50
2023-05-22T15:58:06.567Z,7.10
2023-05-22T16:00:41.324Z,7.00
2023-05-22T16:03:15.105Z,8.00
2023-05-22T16:05:45.767Z,8.40
2023-05-22T16:08:17.072Z,22.30
2023-05-22T16:10:47.221Z,9.40
2023-05-22T16:13:17.062Z,13.00
2023-05-22T16:15:45.206Z,22.00
2023-05-22T16:18:13.496Z,22.20
2023-05-22T16:20:41.708Z,15.50
2023-05-22T16:23:12.312Z,20.10
2023-05-22T16:25:40.781Z,5.00
2023-05-22T16:28:11.013Z,12.50
2023-05-22T16:30:40.260Z,6.70
2023-05-22T16:33:08.930Z,9.50
2023-05-22T16:35:37.801Z,7.20
2023-05-22T16:38:07.263Z,16.60
2023-05-22T16:40:35.275Z,7.00
2023-05-22T16:43:04.602Z,17.80
2023-05-22T16:45:32.635Z,13.90
2023-05-22T16:48:01.277Z,10.10
2023-05-22T16:50:29.261Z,19.10
2023-05-22T16:52:57.364Z,7.10
2023-05-22T16:55:25.720Z,6.90
2023-05-22T16:57:54.052Z,4.90
2023-05-22T17:00:22.388Z,8.90
2023-05-22T17:02:51.080Z,22.20
2023-05-22T17:05:20.054Z,19.70
2023-05-22T17:07:48.516Z,15.20
2023-05-22T17:10:16.518Z,17.40
2023-05-22T17:12:44.564Z,16.40
2023-05-22T17:15:12.483Z,8.40
2023-05-22T17:17:40.753Z,12.30
2023-05-22T17:20:10.136Z,8.30
2023-05-22T17:22:38.810Z,9.50
2023-05-22T17:25:08.128Z,28.10
2023-05-22T17:27:36.988Z,26.10
2023-05-22T17:30:07.858Z,26.80
2023-05-22T17:32:35.968Z,10.00
2023-05-22T17:35:06.739Z,15.90
2023-05-22T17:37:34.930Z,15.20
2023-05-22T17:40:03.901Z,23.30
2023-05-22T17:42:31.816Z,9.60
2023-05-22T17:44:59.672Z,27.40
2023-05-22T17:47:27.599Z,23.60
2023-05-22T17:49:55.944Z,20.60
2023-05-22T17:52:23.759Z,19.30
2023-05-22T17:54:51.819Z,16.60
2023-05-22T17:57:19.698Z,10.40
2023-05-22T17:59:47.802Z,11.20
2023-05-22T18:02:16.015Z,12.90
2023-05-22T18:04:44.401Z,11.50
2023-05-22T18:07:12.371Z,13.50
2023-05-22T18:09:40.695Z,14.10
2023-05-22T18:12:15.139Z,10.90
2023-05-22T18:14:52.436Z,15.10
2023-05-22T18:17:20.584Z,15.70
2023-05-22T18:19:48.610Z,12.30
2023-05-22T18:22:16.580Z,10.50
2023-05-22T18:24:44.618Z,10.10
2023-05-22T18:27:12.578Z,11.00
2023-05-22T18:29:40.760Z,29.20
2023-05-22T18:32:10.923Z,10.70
2023-05-22T18:34:38.916Z,10.50
2023-05-22T18:37:08.809Z,14.40
2023-05-22T18:39:37.457Z,10.40
2023-05-22T18:42:05.888Z,7.30
2023-05-22T18:44:33.892Z,11.00
2023-05-22T18:47:02.026Z,6.80
2023-05-22T18:49:30.059Z,8.10
2023-05-22T18:52:03.350Z,9.10
2023-05-22T18:54:31.294Z,8.60
2023-05-22T18:56:59.243Z,7.60
2023-05-22T18:59:27.065Z,14.30
2023-05-22T19:01:55.182Z,9.00
2023-05-22T19:04:23.305Z,10.60
2023-05-22T19:06:53.699Z,16.10
2023-05-22T19:09:22.337Z,15.00
2023-05-22T19:11:50.383Z,14.10
2023-05-22T19:14:18.305Z,15.70
2023-05-22T19:16:46.327Z,13.00
2023-05-22T19:19:14.916Z,12.60
2023-05-22T19:21:43.052Z,17.00
2023-05-22T19:24:11.000Z,13.90
2023-05-22T19:26:38.964Z,12.00
2023-05-22T19:29:06.870Z,10.90
2023-05-22T19:31:35.016Z,14.60
2023-05-22T19:34:04.092Z,12.40
2023-05-22T19:36:32.693Z,10.30
2023-05-22T19:39:00.753Z,10.70
2023-05-22T19:41:31.935Z,10.50
2023-05-22T19:44:02.376Z,9.70
2023-05-22T19:46:30.352Z,15.50
2023-05-22T19:48:58.393Z,11.50
2023-05-22T19:51:26.705Z,19.70
2023-05-22T19:53:54.551Z,13.70
2023-05-22T19:56:22.689Z,12.50
2023-05-22T19:58:53.301Z,18.30
2023-05-22T20:03:49.721Z,15.20
2023-05-22T20:06:18.556Z,24.50
2023-05-22T20:08:46.406Z,21.20
2023-05-22T20:11:14.600Z,20.40
2023-05-22T20:13:42.665Z,24.00
2023-05-22T20:16:12.841Z,17.00
2023-05-22T20:18:44.668Z,20.10
2023-05-22T20:21:13.188Z,25.20
2023-05-22T20:23:42.501Z,26.50
2023-05-22T20:26:10.500Z,18.10
2023-05-22T20:28:39.163Z,21.80
2023-05-22T20:31:07.159Z,14.50
2023-05-22T20:33:39.846Z,30.40
2023-05-22T20:36:08.685Z,65.00
2023-05-22T20:38:36.909Z,59.40
2023-05-22T20:41:09.543Z,45.00
2023-05-22T20:43:37.808Z,61.50
2023-05-22T20:46:05.753Z,78.90
2023-05-22T20:48:33.744Z,94.50
2023-05-22T20:51:01.732Z,125.70
2023-05-22T20:53:29.609Z,134.70
2023-05-22T20:56:00.321Z,148.00
2023-05-22T20:58:28.350Z,151.20
2023-05-22T21:00:56.731Z,181.80
2023-05-22T21:03:25.767Z,177.20
2023-05-22T21:05:54.815Z,148.90
2023-05-22T21:08:22.727Z,107.90
2023-05-22T21:10:50.668Z,97.80
2023-05-22T21:13:19.578Z,73.00
2023-05-22T21:15:47.494Z,79.90
2023-05-22T21:18:15.944Z,115.60
2023-05-22T21:20:43.958Z,131.80
2023-05-22T21:23:12.031Z,122.40
2023-05-22T21:25:39.985Z,92.60
2023-05-22T21:28:07.866Z,85.40
2023-05-22T21:30:36.136Z,70.60
2023-05-22T21:33:04.098Z,58.60
2023-05-22T21:35:32.019Z,52.90
2023-05-22T21:37:59.795Z,43.60
2023-05-22T21:40:27.589Z,24.30
2023-05-22T21:42:55.352Z,24.10
2023-05-22T21:45:23.181Z,19.90
2023-05-22T21:47:51.134Z,21.00
2023-05-22T21:50:19.141Z,16.20
2023-05-22T21:52:47.165Z,19.30
2023-05-22T21:55:15.140Z,15.50
2023-05-22T21:57:43.204Z,14.50
2023-05-22T22:00:12.533Z,15.40
2023-05-22T22:02:41.868Z,12.50
2023-05-22T22:05:11.769Z,15.90
2023-05-22T22:07:39.602Z,17.00
2023-05-22T22:10:07.965Z,11.10
2023-05-22T22:12:35.865Z,13.60
2023-05-22T22:15:04.101Z,11.30
2023-05-22T22:17:31.944Z,12.60
2023-05-22T22:20:00.158Z,10.20
2023-05-22T22:22:28.463Z,12.90
2023-05-22T22:24:56.320Z,12.80
2023-05-22T22:27:24.342Z,15.80
2023-05-22T22:29:52.208Z,11.80
2023-05-22T22:32:20.564Z,10.40
2023-05-22T22:34:53.752Z,10.50
2023-05-22T22:37:22.034Z,11.20
2023-05-22T22:39:50.096Z,11.20
2023-05-22T22:42:17.988Z,10.20
2023-05-22T22:44:45.977Z,10.70
2023-05-22T22:47:13.768Z,10.60
2023-05-22T22:49:42.453Z,10.00
2023-05-22T22:52:10.210Z,9.30
2023-05-22T22:54:38.197Z,11.40
2023-05-22T22:57:06.431Z,9.50
2023-05-22T22:59:35.589Z,8.70
2023-05-22T23:02:03.414Z,12.40
2023-05-22T23:04:32.470Z,13.50
2023-05-22T23:07:00.417Z,8.30
2023-05-22T23:09:28.219Z,11.00
2023-05-22T23:11:56.161Z,10.30
2023-05-22T23:14:24.798Z,12.80
2023-05-22T23:16:52.694Z,12.90
2023-05-22T23:19:20.570Z,9.50
2023-05-22T23:21:48.550Z,10.40
2023-05-22T23:24:16.532Z,12.00
2023-05-22T23:26:44.526Z,8.70
2023-05-22T23:29:12.512Z,9.10
2023-05-22T23:31:40.626Z,15.10
2023-05-22T23:34:08.814Z,11.50
2023-05-22T23:36:36.952Z,12.80
2023-05-22T23:39:04.961Z,14.50
2023-05-22T23:41:33.443Z,10.50
2023-05-22T23:44:02.098Z,9.20
2023-05-22T23:46:30.107Z,14.90
2023-05-22T23:48:58.023Z,14.40
2023-05-22T23:51:25.980Z,11.20
2023-05-22T23:53:53.931Z,11.40
2023-05-22T23:56:21.916Z,14.70
2023-05-22T23:58:49.749Z,13.60
